Time,TemperatureF,DewpointF,PressureIn,WindDirection,WindDirectionDegrees,WindSpeedMPH,WindSpeedGustMPH,Humidity,HourlyPrecipIn,Conditions,Clouds,dailyrainin,SolarRadiationWatts/m^2,SoftwareType,DateUTC
2013-09-20 00:22:00,36.0,31.0,-100.00,ENE,60,7.0,9.0,82,0.00,,,0.11,0.000000,,2013-09-20 06:22:00,
2013-09-20 00:33:00,36.0,31.0,-100.00,ENE,60,7.0,9.0,82,0.00,,,0.11,0.000000,,2013-09-20 06:33:00,
2013-09-20 00:42:00,36.0,31.0,-100.00,ENE,60,7.0,9.0,82,0.00,,,0.11,0.000000,,2013-09-20 06:42:00,
2013-09-20 00:52:00,36.0,31.0,-100.00,ENE,60,7.0,9.0,82,0.00,,,0.11,0.000000,,2013-09-20 06:52:00,
2013-09-20 01:23:00,35.0,31.0,-100.00,ENE,63,6.0,9.0,86,0.00,,,0.10,0.000000,,2013-09-20 07:23:00,
2013-09-20 01:32:00,35.0,31.0,-100.00,ENE,63,6.0,9.0,86,0.00,,,0.10,0.000000,,2013-09-20 07:32:00,
2013-09-20 01:42:00,35.0,31.0,-100.00,ENE,63,6.0,9.0,86,0.00,,,0.10,0.000000,,2013-09-20 07:42:00,
2013-09-20 01:53:00,35.0,31.0,-100.00,ENE,63,6.0,9.0,86,0.00,,,0.10,0.000000,,2013-09-20 07:53:00,
2013-09-20 03:43:00,32.0,30.0,-100.00,ENE,66,6.0,8.0,93,-99.99,,,0.10,0.000000,,2013-09-20 09:43:00,
2013-09-20 03:53:00,32.0,30.0,-100.00,ENE,66,6.0,8.0,93,-99.99,,,0.10,0.000000,,2013-09-20 09:53:00,
2013-09-20 04:42:00,32.0,30.0,-100.00,ENE,61,5.0,7.0,93,-99.99,,,0.10,0.000000,,2013-09-20 10:42:00,
2013-09-20 05:42:00,31.0,29.0,-100.00,ENE,57,6.0,8.0,91,-99.99,,,0.10,0.000000,,2013-09-20 11:42:00,
2013-09-20 06:42:00,31.0,29.0,-100.00,ENE,63,6.0,7.0,93,-99.99,,,0.10,0.000000,,2013-09-20 12:42:00,
2013-09-20 07:42:00,31.0,29.0,-100.00,ENE,68,5.0,8.0,94,-99.99,,,0.10,1.000000,,2013-09-20 13:42:00,
2013-09-20 07:52:00,31.0,29.0,-100.00,ENE,68,5.0,8.0,94,-99.99,,,0.10,1.000000,,2013-09-20 13:52:00,
2013-09-20 08:21:00,35.0,32.0,-100.00,ENE,63,3.0,7.0,89,-99.99,,,0.10,87.000000,,2013-09-20 14:21:00,
2013-09-20 08:32:00,35.0,32.0,-100.00,ENE,63,3.0,7.0,89,-99.99,,,0.10,87.000000,,2013-09-20 14:32:00,
2013-09-20 08:42:00,35.0,32.0,-100.00,ENE,63,3.0,7.0,89,-99.99,,,0.10,87.000000,,2013-09-20 14:42:00,
2013-09-20 08:52:00,35.0,32.0,-100.00,ENE,63,3.0,7.0,89,-99.99,,,0.10,87.000000,,2013-09-20 14:52:00,
2013-09-20 09:22:00,43.0,36.0,-100.00,NW,316,5.0,7.0,77,0.00,,,0.10,353.000000,,2013-09-20 15:22:00,
2013-09-20 09:33:00,43.0,36.0,-100.00,NW,316,5.0,7.0,77,0.00,,,0.10,353.000000,,2013-09-20 15:33:00,
2013-09-20 09:44:00,43.0,36.0,-100.00,NW,316,5.0,7.0,77,0.00,,,0.10,353.000000,,2013-09-20 15:44:00,
2013-09-20 09:54:00,43.0,36.0,-100.00,NW,316,5.0,7.0,77,0.00,,,0.10,353.000000,,2013-09-20 15:54:00,
2013-09-20 10:23:00,49.0,37.0,-100.00,WNW,290,3.0,7.0,62,0.00,,,0.10,548.000000,,2013-09-20 16:23:00,
2013-09-20 10:42:00,49.0,37.0,-100.00,WNW,290,3.0,7.0,62,0.00,,,0.10,548.000000,,2013-09-20 16:42:00,
2013-09-20 10:53:00,49.0,37.0,-100.00,WNW,290,3.0,7.0,62,0.00,,,0.10,548.000000,,2013-09-20 16:53:00,
2013-09-20 11:24:00,53.0,29.0,-100.00,NW,317,6.0,10.0,40,0.00,,,-99.99,751.000000,,2013-09-20 17:24:00,
2013-09-20 11:34:00,53.0,29.0,-100.00,NW,317,6.0,10.0,40,0.00,,,-99.99,751.000000,,2013-09-20 17:34:00,
2013-09-20 11:42:00,53.0,29.0,-100.00,NW,317,6.0,10.0,40,0.00,,,-99.99,751.000000,,2013-09-20 17:42:00,
2013-09-20 11:53:00,53.0,29.0,-100.00,NW,317,6.0,10.0,40,0.00,,,-99.99,751.000000,,2013-09-20 17:53:00,
2013-09-20 12:42:00,56.0,23.0,-100.00,NW,312,7.0,11.0,28,0.00,,,0.10,898.000000,,2013-09-20 18:42:00,
2013-09-20 13:22:00,59.0,25.0,-100.00,SW,220,5.0,12.0,27,0.00,,,0.10,976.000000,,2013-09-20 19:22:00,
2013-09-20 13:32:00,59.0,25.0,-100.00,SW,220,5.0,12.0,27,0.00,,,0.10,976.000000,,2013-09-20 19:32:00,
2013-09-20 13:42:00,59.0,25.0,-100.00,SW,220,5.0,12.0,27,0.00,,,0.10,976.000000,,2013-09-20 19:42:00,
2013-09-20 13:52:00,59.0,25.0,-100.00,SW,220,5.0,12.0,27,0.00,,,0.10,976.000000,,2013-09-20 19:52:00,
2013-09-20 14:22:00,62.0,19.0,-100.00,WSW,252,4.0,11.0,19,0.00,,,0.10,983.000000,,2013-09-20 20:22:00,
2013-09-20 14:32:00,62.0,19.0,-100.00,WSW,252,4.0,11.0,19,0.00,,,0.10,983.000000,,2013-09-20 20:32:00,
2013-09-20 14:42:00,62.0,19.0,-100.00,WSW,252,4.0,11.0,19,0.00,,,0.10,983.000000,,2013-09-20 20:42:00,
2013-09-20 14:52:00,62.0,19.0,-100.00,WSW,252,4.0,11.0,19,0.00,,,0.10,983.000000,,2013-09-20 20:52:00,
2013-09-20 15:21:00,63.0,18.0,-100.00,South,177,5.0,12.0,17,0.00,,,0.10,920.000000,,2013-09-20 21:21:00,
2013-09-20 15:34:00,63.0,18.0,-100.00,South,177,5.0,12.0,17,0.00,,,0.10,920.000000,,2013-09-20 21:34:00,
2013-09-20 15:44:00,63.0,18.0,-100.00,South,177,5.0,12.0,17,0.00,,,0.10,920.000000,,2013-09-20 21:44:00,
2013-09-20 15:54:00,63.0,18.0,-100.00,South,177,5.0,12.0,17,0.00,,,0.10,920.000000,,2013-09-20 21:54:00,
2013-09-20 16:23:00,62.0,29.0,-100.00,SW,234,8.0,15.0,29,0.00,,,0.10,785.000000,,2013-09-20 22:23:00,
2013-09-20 16:33:00,62.0,29.0,-100.00,SW,234,8.0,15.0,29,0.00,,,0.10,785.000000,,2013-09-20 22:33:00,
2013-09-20 16:44:00,62.0,29.0,-100.00,SW,234,8.0,15.0,29,0.00,,,0.10,785.000000,,2013-09-20 22:44:00,
2013-09-20 16:53:00,62.0,29.0,-100.00,SW,234,8.0,15.0,29,0.00,,,0.10,785.000000,,2013-09-20 22:53:00,
2013-09-20 17:42:00,59.0,35.0,-100.00,SSW,192,11.0,19.0,41,0.00,,,0.08,555.000000,,2013-09-20 23:42:00,
2013-09-20 17:53:00,59.0,35.0,-100.00,SSW,192,11.0,19.0,41,0.00,,,0.08,555.000000,,2013-09-20 23:53:00,
2013-09-20 18:21:00,56.0,38.0,-100.00,SE,139,6.0,18.0,50,0.00,,,0.05,77.000000,,2013-09-21 00:21:00,
2013-09-20 18:33:00,56.0,38.0,-100.00,SE,139,6.0,18.0,50,0.00,,,0.05,77.000000,,2013-09-21 00:33:00,
2013-09-20 18:42:00,56.0,38.0,-100.00,SE,139,6.0,18.0,50,0.00,,,0.05,77.000000,,2013-09-21 00:42:00,
2013-09-20 18:52:00,56.0,38.0,-100.00,SE,139,6.0,18.0,50,0.00,,,0.05,77.000000,,2013-09-21 00:52:00,
2013-09-20 19:22:00,54.0,34.0,-100.00,SE,143,7.0,15.0,46,0.00,,,0.05,119.000000,,2013-09-21 01:22:00,
2013-09-20 19:32:00,54.0,34.0,-100.00,SE,143,7.0,15.0,46,0.00,,,0.05,119.000000,,2013-09-21 01:32:00,
2013-09-20 19:42:00,54.0,34.0,-100.00,SE,143,7.0,15.0,46,0.00,,,0.05,119.000000,,2013-09-21 01:42:00,
2013-09-20 19:52:00,54.0,34.0,-100.00,SE,143,7.0,15.0,46,0.00,,,0.05,119.000000,,2013-09-21 01:52:00,
2013-09-20 20:22:00,51.0,31.0,-100.00,ESE,123,7.0,13.0,47,0.00,,,-99.99,2.000000,,2013-09-21 02:22:00,
2013-09-20 20:32:00,51.0,31.0,-100.00,ESE,123,7.0,13.0,47,0.00,,,-99.99,2.000000,,2013-09-21 02:32:00,
2013-09-20 20:42:00,51.0,31.0,-100.00,ESE,123,7.0,13.0,47,0.00,,,-99.99,2.000000,,2013-09-21 02:42:00,
2013-09-20 20:52:00,51.0,31.0,-100.00,ESE,123,7.0,13.0,47,0.00,,,-99.99,2.000000,,2013-09-21 02:52:00,
2013-09-20 21:22:00,45.0,33.0,-100.00,ENE,62,3.0,10.0,63,0.00,,,0.00,0.000000,,2013-09-21 03:22:00,
2013-09-20 21:34:00,45.0,33.0,-100.00,ENE,62,3.0,10.0,63,0.00,,,0.00,0.000000,,2013-09-21 03:34:00,
2013-09-20 21:44:00,45.0,33.0,-100.00,ENE,62,3.0,10.0,63,0.00,,,0.00,0.000000,,2013-09-21 03:44:00,
2013-09-20 21:54:00,45.0,33.0,-100.00,ENE,62,3.0,10.0,63,0.00,,,0.00,0.000000,,2013-09-21 03:54:00,
2013-09-20 22:24:00,40.0,32.0,-100.00,ENE,65,6.0,9.0,72,0.00,,,-99.99,0.000000,,2013-09-21 04:24:00,
2013-09-20 22:33:00,40.0,32.0,-100.00,ENE,65,6.0,9.0,72,0.00,,,-99.99,0.000000,,2013-09-21 04:33:00,
2013-09-20 22:43:00,40.0,32.0,-100.00,ENE,65,6.0,9.0,72,0.00,,,-99.99,0.000000,,2013-09-21 04:43:00,
2013-09-20 22:54:00,40.0,32.0,-100.00,ENE,65,6.0,9.0,72,0.00,,,-99.99,0.000000,,2013-09-21 04:54:00,
2013-09-20 23:43:00,38.0,30.0,-100.00,ENE,64,7.0,8.0,74,0.00,,,0.00,0.000000,,2013-09-21 05:43:00,